Time;durP1;ratioP1;P1;durP2;ratioP2;P2;SDS_P1;SDS_P2;PMS_P1;PMS_P2;Temp;Humidity;BMP_temperature;BMP_pressure;BME280_temperature;BME280_humidity;BME280_pressure;Samples;Min_cycle;Max_cycle;Signal;HPM_P1;HPM_P2
2022/05/27 00:01:35;;;;;;;4.88;3.10;;;;;;;;;;5052042;28;20025;-41
2022/05/27 00:04:03;;;;;;;3.33;2.85;;;;;;;;;;5052080;28;20541;-40
2022/05/27 00:06:30;;;;;;;3.15;2.95;;;;;;;;;;5051996;28;20060;-41
2022/05/27 00:08:56;;;;;;;3.13;2.90;;;;;;;;;;5052219;28;20033;-43
2022/05/27 00:11:25;;;;;;;3.00;2.75;;;;;;;;;;5051967;28;20496;-44
2022/05/27 00:13:51;;;;;;;3.58;3.00;;;;;;;;;;5055661;28;20017;-46
2022/05/27 00:16:17;;;;;;;3.65;3.10;;;;;;;;;;5055879;28;20060;-43
2022/05/27 00:18:43;;;;;;;3.38;2.85;;;;;;;;;;5055863;28;20021;-41
2022/05/27 00:21:09;;;;;;;4.13;2.80;;;;;;;;;;5055685;28;20392;-45
2022/05/27 00:23:37;;;;;;;3.13;2.88;;;;;;;;;;5055757;28;20025;-41
2022/05/27 00:26:03;;;;;;;3.15;2.80;;;;;;;;;;5055648;28;20061;-48
2022/05/27 00:28:28;;;;;;;7.43;2.97;;;;;;;;;;5055925;28;20123;-40
2022/05/27 00:30:54;;;;;;;3.40;3.10;;;;;;;;;;5055952;28;20099;-45
2022/05/27 00:33:20;;;;;;;3.85;2.75;;;;;;;;;;5055923;28;20371;-39
2022/05/27 00:35:45;;;;;;;3.05;2.70;;;;;;;;;;5055583;28;20036;-44
2022/05/27 00:38:12;;;;;;;5.80;2.90;;;;;;;;;;5055731;28;20025;-40
2022/05/27 00:40:45;;;;;;;3.15;2.85;;;;;;;;;;5055607;28;20029;-40
2022/05/27 00:43:11;;;;;;;3.55;2.70;;;;;;;;;;5037504;28;20021;-42
2022/05/27 00:45:39;;;;;;;3.13;2.80;;;;;;;;;;5055457;28;20036;-39
2022/05/27 00:48:09;;;;;;;2.80;2.55;;;;;;;;;;5055552;28;20257;-43
2022/05/27 00:50:40;;;;;;;4.65;2.85;;;;;;;;;;5055526;28;20021;-42
2022/05/27 00:53:07;;;;;;;4.15;2.80;;;;;;;;;;5055561;28;20388;-41
2022/05/27 00:55:36;;;;;;;2.70;2.50;;;;;;;;;;5055443;28;20108;-43
2022/05/27 00:58:24;;;;;;;4.30;3.00;;;;;;;;;;5054995;28;20044;-40
2022/05/27 01:00:50;;;;;;;7.72;2.80;;;;;;;;;;5055083;28;20035;-41
2022/05/27 01:03:17;;;;;;;3.85;2.95;;;;;;;;;;5055488;28;20029;-40
2022/05/27 01:05:44;;;;;;;3.28;2.97;;;;;;;;;;5054923;28;20029;-40
2022/05/27 01:08:12;;;;;;;3.17;2.88;;;;;;;;;;5054858;28;20488;-44
2022/05/27 01:10:53;;;;;;;2.90;2.70;;;;;;;;;;5055209;28;20025;-44
2022/05/27 01:13:37;;;;;;;6.45;3.20;;;;;;;;;;5054842;28;20041;-41
2022/05/27 01:16:05;;;;;;;3.65;2.70;;;;;;;;;;5054808;28;20028;-41
2022/05/27 01:21:59;;;;;;;3.55;3.25;;;;;;;;;;4973620;28;20637;-43
2022/05/27 01:24:33;;;;;;;3.60;3.30;;;;;;;;;;5049877;28;20434;-43
2022/05/27 01:27:01;;;;;;;4.10;3.35;;;;;;;;;;5054360;28;20243;-41
2022/05/27 01:29:42;;;;;;;6.35;3.22;;;;;;;;;;5054795;28;20027;-45
2022/05/27 01:32:19;;;;;;;6.20;3.40;;;;;;;;;;5054395;28;20112;-45
2022/05/27 01:35:03;;;;;;;4.07;2.90;;;;;;;;;;5054742;28;20357;-46
2022/05/27 01:37:34;;;;;;;2.75;2.55;;;;;;;;;;5054399;28;20039;-42
2022/05/27 01:40:17;;;;;;;3.33;3.00;;;;;;;;;;5054615;28;20048;-42
2022/05/27 01:42:51;;;;;;;4.55;3.08;;;;;;;;;;5054428;28;20561;-46
2022/05/27 01:45:23;;;;;;;4.63;3.00;;;;;;;;;;5054065;28;20025;-44
2022/05/27 01:47:53;;;;;;;3.35;3.05;;;;;;;;;;5054316;28;20025;-41
2022/05/27 01:50:49;;;;;;;3.88;3.08;;;;;;;;;;5054101;28;20063;-42
2022/05/27 01:53:24;;;;;;;3.42;2.88;;;;;;;;;;5052813;28;20036;-41
2022/05/27 01:56:03;;;;;;;5.95;3.17;;;;;;;;;;5054372;28;20447;-39
2022/05/27 01:58:33;;;;;;;3.22;2.92;;;;;;;;;;5054266;28;20017;-41
2022/05/27 02:00:58;;;;;;;5.82;3.47;;;;;;;;;;5053975;28;20473;-43
2022/05/27 02:03:29;;;;;;;3.13;2.92;;;;;;;;;;5053975;28;20121;-39
2022/05/27 02:06:06;;;;;;;3.55;3.25;;;;;;;;;;5054016;28;20094;-41
2022/05/27 02:08:42;;;;;;;3.85;3.20;;;;;;;;;;5053866;28;20021;-41
2022/05/27 02:11:17;;;;;;;3.88;2.88;;;;;;;;;;5054060;28;20017;-42
2022/05/27 02:13:55;;;;;;;3.42;3.13;;;;;;;;;;5053660;28;20025;-45
2022/05/27 02:16:32;;;;;;;3.95;3.20;;;;;;;;;;5053647;28;20173;-41
2022/05/27 02:19:12;;;;;;;3.40;3.10;;;;;;;;;;5053687;28;20258;-41
2022/05/27 02:21:42;;;;;;;3.58;3.08;;;;;;;;;;5053909;28;20028;-41
2022/05/27 02:24:12;;;;;;;4.78;3.17;;;;;;;;;;5053825;28;20392;-43
2022/05/27 02:26:43;;;;;;;3.50;3.20;;;;;;;;;;5053366;28;20056;-41
2022/05/27 02:29:16;;;;;;;3.28;2.97;;;;;;;;;;5053389;28;20040;-40
2022/05/27 02:31:46;;;;;;;4.82;2.88;;;;;;;;;;5053387;28;20480;-39
2022/05/27 02:37:07;;;;;;;2.97;2.78;;;;;;;;;;5053496;28;20036;-41
2022/05/27 02:39:35;;;;;;;3.00;2.80;;;;;;;;;;5053547;28;20029;-40
2022/05/27 02:42:10;;;;;;;3.83;2.90;;;;;;;;;;5053145;28;20029;-44
2022/05/27 02:44:47;;;;;;;2.80;2.60;;;;;;;;;;5053121;28;20075;-41
2022/05/27 02:47:25;;;;;;;2.80;2.60;;;;;;;;;;5053015;28;20491;-39
2022/05/27 02:50:04;;;;;;;5.70;2.70;;;;;;;;;;5052946;28;20530;-42
2022/05/27 02:52:42;;;;;;;3.55;2.83;;;;;;;;;;5053446;28;20040;-44
2022/05/27 02:55:13;;;;;;;3.00;2.80;;;;;;;;;;5052963;28;20025;-43
2022/05/27 02:57:50;;;;;;;3.08;2.78;;;;;;;;;;5053183;28;20384;-41
2022/05/27 03:00:22;;;;;;;4.63;2.80;;;;;;;;;;5052830;28;20053;-43
2022/05/27 03:02:47;;;;;;;2.58;2.35;;;;;;;;;;5052846;28;20036;-39
2022/05/27 03:05:16;;;;;;;2.70;2.40;;;;;;;;;;5034717;28;20021;-40
2022/05/27 03:07:47;;;;;;;3.03;2.80;;;;;;;;;;5052687;28;20025;-39
2022/05/27 03:10:22;;;;;;;3.38;3.08;;;;;;;;;;5052905;28;20078;-39
2022/05/27 03:13:25;;;;;;;4.88;3.08;;;;;;;;;;5052892;28;20028;-40
2022/05/27 03:16:25;;;;;;;3.45;3.10;;;;;;;;;;5052769;28;20367;-42
2022/05/27 03:19:17;;;;;;;3.40;3.10;;;;;;;;;;5052595;28;20025;-45
2022/05/27 03:21:51;;;;;;;3.50;3.20;;;;;;;;;;5052460;28;20090;-42
2022/05/27 03:25:03;;;;;;;3.65;3.30;;;;;;;;;;5052821;28;20124;-40
2022/05/27 03:27:43;;;;;;;3.30;3.03;;;;;;;;;;5052322;28;20392;-41
2022/05/27 03:30:12;;;;;;;5.50;2.95;;;;;;;;;;5052351;28;20056;-43
2022/05/27 03:32:52;;;;;;;3.75;2.92;;;;;;;;;;5052338;28;20029;-45
2022/05/27 03:35:54;;;;;;;2.97;2.67;;;;;;;;;;5052601;28;20033;-39
2022/05/27 03:38:30;;;;;;;4.20;2.90;;;;;;;;;;5052597;28;20107;-41
2022/05/27 03:41:06;;;;;;;4.20;2.80;;;;;;;;;;5052335;28;20029;-41
2022/05/27 03:43:34;;;;;;;3.47;2.72;;;;;;;;;;5052534;28;20025;-45
2022/05/27 03:46:01;;;;;;;3.08;2.78;;;;;;;;;;5052190;28;20472;-43
2022/05/27 03:48:29;;;;;;;3.95;3.00;;;;;;;;;;5055173;28;20072;-40
2022/05/27 03:51:04;;;;;;;4.85;3.17;;;;;;;;;;5056417;28;20028;-46
2022/05/27 03:56:14;;;;;;;3.28;2.97;;;;;;;;;;5056419;28;20040;-42
2022/05/27 03:58:39;;;;;;;6.40;3.45;;;;;;;;;;5056470;28;20029;-44
2022/05/27 04:01:06;;;;;;;3.92;3.60;;;;;;;;;;5056403;28;20060;-42
2022/05/27 04:03:31;;;;;;;3.75;3.40;;;;;;;;;;5056384;28;20021;-40
2022/05/27 04:05:56;;;;;;;7.45;4.28;;;;;;;;;;5055997;28;20357;-45
2022/05/27 04:08:22;;;;;;;5.55;3.67;;;;;;;;;;5056374;28;20539;-46
2022/05/27 04:10:47;;;;;;;5.53;3.47;;;;;;;;;;5056537;28;20032;-41
2022/05/27 04:13:13;;;;;;;4.93;4.10;;;;;;;;;;5056208;28;20428;-42
2022/05/27 04:15:38;;;;;;;4.63;4.13;;;;;;;;;;5055928;28;20468;-39
2022/05/27 04:18:04;;;;;;;5.28;3.92;;;;;;;;;;5055844;28;20079;-45
2022/05/27 04:20:29;;;;;;;4.22;3.40;;;;;;;;;;5037958;28;20051;-42
2022/05/27 04:22:55;;;;;;;4.13;3.72;;;;;;;;;;5055823;28;20017;-44
2022/05/27 04:25:21;;;;;;;4.18;3.28;;;;;;;;;;5055950;28;20648;-39
2022/05/27 04:27:47;;;;;;;8.70;3.30;;;;;;;;;;5055433;28;20476;-39
2022/05/27 04:30:13;;;;;;;4.82;3.30;;;;;;;;;;5056025;28;20028;-44
2022/05/27 04:32:40;;;;;;;3.90;3.55;;;;;;;;;;5055736;28;20025;-40
2022/05/27 04:35:07;;;;;;;3.20;3.00;;;;;;;;;;5055524;28;20095;-42
2022/05/27 04:37:32;;;;;;;3.50;3.13;;;;;;;;;;5055336;28;20111;-42
2022/05/27 04:39:57;;;;;;;3.17;2.83;;;;;;;;;;5055604;28;20556;-44
2022/05/27 04:42:23;;;;;;;3.20;2.90;;;;;;;;;;5055595;28;20103;-44
2022/05/27 04:44:49;;;;;;;4.55;3.42;;;;;;;;;;5055262;28;20465;-46
2022/05/27 04:47:14;;;;;;;3.35;3.10;;;;;;;;;;5055192;28;20072;-41
2022/05/27 04:49:53;;;;;;;3.50;2.95;;;;;;;;;;5055518;28;20021;-45
2022/05/27 04:52:28;;;;;;;4.07;3.53;;;;;;;;;;5055183;28;20021;-42
2022/05/27 04:54:55;;;;;;;7.00;4.43;;;;;;;;;;5054976;28;20532;-42
2022/05/27 04:57:23;;;;;;;9.63;4.78;;;;;;;;;;5055329;28;20028;-41
2022/05/27 04:59:50;;;;;;;7.32;4.13;;;;;;;;;;5054982;28;20029;-41
2022/05/27 05:02:23;;;;;;;2.80;2.60;;;;;;;;;;5055084;28;20158;-43
2022/05/27 05:04:50;;;;;;;2.97;2.55;;;;;;;;;;5054927;28;20036;-41
2022/05/27 05:07:19;;;;;;;4.07;2.60;;;;;;;;;;5054921;28;20039;-43
2022/05/27 05:09:44;;;;;;;3.33;2.53;;;;;;;;;;5055098;28;20033;-43
2022/05/27 05:12:11;;;;;;;4.05;2.60;;;;;;;;;;5055106;28;20021;-40
2022/05/27 05:14:37;;;;;;;3.13;2.45;;;;;;;;;;5054659;28;20531;-42
2022/05/27 05:17:03;;;;;;;5.22;2.50;;;;;;;;;;5054709;28;20120;-42
2022/05/27 05:19:29;;;;;;;3.90;2.20;;;;;;;;;;5054924;28;20085;-41
2022/05/27 05:21:55;;;;;;;2.38;2.17;;;;;;;;;;5054792;28;20476;-40
2022/05/27 05:24:21;;;;;;;2.60;2.20;;;;;;;;;;5054690;28;20017;-41
2022/05/27 05:26:46;;;;;;;3.50;1.88;;;;;;;;;;5053601;28;20091;-40
2022/05/27 05:29:12;;;;;;;7.22;2.88;;;;;;;;;;5053218;28;20074;-40
2022/05/27 05:31:37;;;;;;;2.33;1.63;;;;;;;;;;5052614;28;20033;-40
2022/05/27 05:34:03;;;;;;;5.53;1.70;;;;;;;;;;5053457;28;20025;-40
2022/05/27 05:36:30;;;;;;;4.20;1.88;;;;;;;;;;5054289;28;20500;-40
2022/05/27 05:38:56;;;;;;;1.50;1.40;;;;;;;;;;5054393;28;20025;-42
2022/05/27 05:41:27;;;;;;;1.38;1.30;;;;;;;;;;5036371;28;20489;-40
2022/05/27 05:43:53;;;;;;;1.67;1.58;;;;;;;;;;5054094;28;20513;-38
2022/05/27 05:46:19;;;;;;;5.38;3.10;;;;;;;;;;5053932;28;20037;-43
2022/05/27 05:48:44;;;;;;;3.33;2.20;;;;;;;;;;5052032;28;20025;-42
2022/05/27 05:51:10;;;;;;;4.53;1.27;;;;;;;;;;5052291;28;20029;-42
2022/05/27 05:53:35;;;;;;;1.40;1.30;;;;;;;;;;5053729;28;20023;-42
2022/05/27 05:56:00;;;;;;;5.97;1.90;;;;;;;;;;5054200;28;20025;-43
2022/05/27 05:58:26;;;;;;;5.35;2.55;;;;;;;;;;5054225;28;20021;-44
2022/05/27 06:00:51;;;;;;;6.00;1.40;;;;;;;;;;5036365;28;20368;-48
2022/05/27 06:03:17;;;;;;;2.55;1.45;;;;;;;;;;5054144;28;20431;-47
2022/05/27 06:05:42;;;;;;;3.45;2.30;;;;;;;;;;5053600;28;20087;-40
2022/05/27 06:08:10;;;;;;;1.27;1.10;;;;;;;;;;5053777;28;20388;-41
2022/05/27 06:10:36;;;;;;;2.65;2.00;;;;;;;;;;5052801;28;20488;-45
2022/05/27 06:13:02;;;;;;;2.38;1.40;;;;;;;;;;5053910;28;20140;-46
2022/05/27 06:15:28;;;;;;;3.55;1.70;;;;;;;;;;5053813;28;20032;-48
2022/05/27 06:17:53;;;;;;;2.22;1.52;;;;;;;;;;5035746;28;20507;-42
2022/05/27 06:20:19;;;;;;;10.30;4.28;;;;;;;;;;5053569;28;20033;-44
2022/05/27 06:22:44;;;;;;;11.15;2.90;;;;;;;;;;5053565;28;20553;-47
2022/05/27 06:25:11;;;;;;;2.88;1.90;;;;;;;;;;5053454;28;20025;-45
2022/05/27 06:27:36;;;;;;;8.32;3.63;;;;;;;;;;5053067;28;20044;-47
2022/05/27 06:35:40;;;;;;;1.70;1.60;;;;;;;;;;5029346;28;20045;-45
2022/05/27 06:38:05;;;;;;;2.33;1.52;;;;;;;;;;5052659;28;20467;-42
2022/05/27 06:40:31;;;;;;;2.58;1.58;;;;;;;;;;5052738;28;20103;-39
2022/05/27 06:42:56;;;;;;;1.92;1.40;;;;;;;;;;5052996;28;20047;-45
2022/05/27 06:45:22;;;;;;;1.50;1.40;;;;;;;;;;5052959;28;20087;-42
2022/05/27 06:47:47;;;;;;;1.55;1.40;;;;;;;;;;5053107;28;20029;-43
2022/05/27 06:50:13;;;;;;;2.33;1.20;;;;;;;;;;5052885;28;20032;-42
2022/05/27 06:52:40;;;;;;;2.25;1.40;;;;;;;;;;5053219;28;20025;-41
2022/05/27 06:55:11;;;;;;;1.40;1.30;;;;;;;;;;5052861;28;20021;-41
2022/05/27 06:57:37;;;;;;;1.67;1.42;;;;;;;;;;5052892;28;20021;-42
2022/05/27 07:00:06;;;;;;;4.70;2.10;;;;;;;;;;5052846;28;20031;-45
2022/05/27 07:02:31;;;;;;;7.30;4.20;;;;;;;;;;5052790;28;20024;-49
2022/05/27 07:04:57;;;;;;;4.45;2.33;;;;;;;;;;5052806;28;20435;-43
2022/05/27 07:07:27;;;;;;;3.33;2.17;;;;;;;;;;5052946;28;20104;-48
2022/05/27 07:09:52;;;;;;;2.92;2.20;;;;;;;;;;5052918;28;20025;-45
2022/05/27 07:12:18;;;;;;;6.50;3.97;;;;;;;;;;5052934;28;20029;-43
2022/05/27 07:14:43;;;;;;;2.42;2.22;;;;;;;;;;5052604;28;20038;-45
2022/05/27 07:17:09;;;;;;;4.82;2.70;;;;;;;;;;5052820;28;20111;-46
2022/05/27 07:19:35;;;;;;;3.40;2.75;;;;;;;;;;5052598;28;20104;-47
2022/05/27 07:22:01;;;;;;;4.85;3.83;;;;;;;;;;5052397;28;20020;-44
2022/05/27 07:24:26;;;;;;;2.88;2.38;;;;;;;;;;5052766;28;20025;-47
2022/05/27 07:26:52;;;;;;;9.07;3.90;;;;;;;;;;5052278;28;20404;-46
2022/05/27 07:29:18;;;;;;;4.55;2.58;;;;;;;;;;5052639;28;20166;-45
2022/05/27 07:31:44;;;;;;;4.85;3.08;;;;;;;;;;5052445;28;20028;-44
2022/05/27 07:34:10;;;;;;;4.90;3.53;;;;;;;;;;5034928;28;20017;-46
2022/05/27 07:36:36;;;;;;;3.97;3.15;;;;;;;;;;5052529;28;20027;-46
2022/05/27 07:39:02;;;;;;;5.30;3.40;;;;;;;;;;5052374;28;20081;-46
2022/05/27 07:41:28;;;;;;;4.32;2.55;;;;;;;;;;5052088;28;20052;-47
2022/05/27 07:43:54;;;;;;;2.05;1.45;;;;;;;;;;5052515;28;20030;-45
2022/05/27 07:46:22;;;;;;;2.13;1.77;;;;;;;;;;5051987;28;20040;-46
2022/05/27 07:48:48;;;;;;;3.87;2.10;;;;;;;;;;5052420;28;20052;-42
2022/05/27 07:51:13;;;;;;;4.32;1.88;;;;;;;;;;5052380;28;20029;-47
2022/05/27 07:53:39;;;;;;;5.57;1.70;;;;;;;;;;5052484;28;20464;-46
2022/05/27 07:56:09;;;;;;;2.30;1.98;;;;;;;;;;5052351;28;20504;-44
2022/05/27 07:58:34;;;;;;;1.90;1.80;;;;;;;;;;5052754;28;20022;-47
2022/05/27 08:01:00;;;;;;;3.20;2.00;;;;;;;;;;5052196;28;20021;-45
2022/05/27 08:03:25;;;;;;;2.40;2.20;;;;;;;;;;5052022;28;20066;-44
2022/05/27 08:05:52;;;;;;;2.78;2.20;;;;;;;;;;5052261;28;20040;-45
2022/05/27 08:08:19;;;;;;;3.22;1.95;;;;;;;;;;5052211;28;20033;-46
2022/05/27 08:10:45;;;;;;;4.75;1.80;;;;;;;;;;5051915;28;20025;-46
2022/05/27 08:13:10;;;;;;;4.72;3.03;;;;;;;;;;5051662;28;20029;-45
2022/05/27 08:15:36;;;;;;;2.20;1.70;;;;;;;;;;5051839;28;20040;-45
2022/05/27 08:18:02;;;;;;;2.17;1.90;;;;;;;;;;5051827;28;20043;-49
2022/05/27 08:20:31;;;;;;;5.53;2.60;;;;;;;;;;5051965;28;20031;-48
2022/05/27 08:22:57;;;;;;;;;;;;;;;;;;5052234;28;20025;-45
2022/05/27 08:25:24;;;;;;;3.15;2.60;;;;;;;;;;5051387;28;19912;-44
2022/05/27 08:27:50;;;;;;;5.50;2.38;;;;;;;;;;5051604;28;20094;-47
2022/05/27 08:30:20;;;;;;;3.17;2.28;;;;;;;;;;5051782;28;20037;-45
2022/05/27 08:32:47;;;;;;;2.45;1.35;;;;;;;;;;5052170;28;20027;-49
2022/05/27 08:38:05;;;;;;;4.55;1.77;;;;;;;;;;5055856;28;20063;-44
2022/05/27 08:41:01;;;;;;;3.15;2.03;;;;;;;;;;5055762;28;20049;-46
2022/05/27 08:43:45;;;;;;;3.15;2.38;;;;;;;;;;5055702;28;20024;-45
2022/05/27 08:46:48;;;;;;;2.65;2.13;;;;;;;;;;5055280;28;20074;-46
2022/05/27 08:49:20;;;;;;;2.70;2.20;;;;;;;;;;5053271;28;20033;-45
2022/05/27 08:51:58;;;;;;;2.85;2.65;;;;;;;;;;5055280;28;20049;-46
2022/05/27 08:54:29;;;;;;;6.97;3.45;;;;;;;;;;5055251;28;20384;-41
2022/05/27 08:59:48;;;;;;;3.63;2.42;;;;;;;;;;5055419;28;20029;-48
2022/05/27 09:02:22;;;;;;;2.45;2.08;;;;;;;;;;5037220;28;20025;-46
2022/05/27 09:04:52;;;;;;;1.40;1.30;;;;;;;;;;5055017;28;20033;-49
2022/05/27 09:07:30;;;;;;;1.50;1.40;;;;;;;;;;5055276;28;20025;-47
2022/05/27 09:09:56;;;;;;;4.88;4.05;;;;;;;;;;5055175;28;20036;-43
2022/05/27 09:12:40;;;;;;;2.75;2.00;;;;;;;;;;5054840;28;20381;-45
2022/05/27 09:15:33;;;;;;;6.93;2.00;;;;;;;;;;5054766;28;20021;-48
2022/05/27 09:18:07;;;;;;;2.83;1.40;;;;;;;;;;5054787;28;20581;-48
2022/05/27 09:20:40;;;;;;;1.50;1.33;;;;;;;;;;5054993;28;20380;-45
2022/05/27 09:23:17;;;;;;;2.20;2.00;;;;;;;;;;5054683;28;20025;-45
2022/05/27 09:26:09;;;;;;;4.10;1.48;;;;;;;;;;5054830;28;20476;-42
2022/05/27 09:28:47;;;;;;;2.65;1.80;;;;;;;;;;5054614;28;20043;-45
2022/05/27 09:31:18;;;;;;;4.72;1.70;;;;;;;;;;5054842;28;20025;-45
2022/05/27 09:33:45;;;;;;;3.10;1.50;;;;;;;;;;5054762;28;20071;-44
2022/05/27 09:36:28;;;;;;;6.45;2.00;;;;;;;;;;5036614;28;20509;-47
2022/05/27 09:38:57;;;;;;;3.85;2.00;;;;;;;;;;5050343;28;20082;-40
2022/05/27 09:41:38;;;;;;;1.50;1.40;;;;;;;;;;5054017;28;20021;-45
2022/05/27 09:44:30;;;;;;;1.45;1.35;;;;;;;;;;5054251;28;20040;-43
2022/05/27 09:46:55;;;;;;;1.40;1.30;;;;;;;;;;5054008;28;20025;-45
2022/05/27 09:49:21;;;;;;;1.65;1.15;;;;;;;;;;5054347;28;20492;-42
2022/05/27 09:51:46;;;;;;;2.60;1.30;;;;;;;;;;5054051;28;20081;-44
2022/05/27 09:54:20;;;;;;;2.88;1.17;;;;;;;;;;5054321;28;20025;-46
2022/05/27 09:57:03;;;;;;;5.07;1.45;;;;;;;;;;5054010;28;20116;-43
2022/05/27 09:59:40;;;;;;;3.65;1.92;;;;;;;;;;5053839;28;20041;-43
2022/05/27 10:02:16;;;;;;;2.25;1.30;;;;;;;;;;5054288;28;20021;-41
2022/05/27 10:04:53;;;;;;;2.17;1.10;;;;;;;;;;5054226;28;20028;-42
2022/05/27 10:07:36;;;;;;;1.10;1.00;;;;;;;;;;5053633;28;20662;-44
2022/05/27 10:10:30;;;;;;;4.30;1.63;;;;;;;;;;5053982;28;20029;-42
2022/05/27 10:12:57;;;;;;;1.02;1.00;;;;;;;;;;5053922;28;20025;-44
2022/05/27 10:15:38;;;;;;;1.10;0.93;;;;;;;;;;5053982;28;20408;-44
2022/05/27 10:18:19;;;;;;;0.98;0.98;;;;;;;;;;5054238;28;20025;-41
2022/05/27 10:21:03;;;;;;;1.10;1.10;;;;;;;;;;5053998;28;20029;-46
2022/05/27 10:23:33;;;;;;;3.60;1.10;;;;;;;;;;5054415;28;20033;-39
2022/05/27 10:26:06;;;;;;;0.90;0.90;;;;;;;;;;5054280;28;20123;-43
2022/05/27 10:28:32;;;;;;;3.60;1.88;;;;;;;;;;5053532;28;20090;-44
2022/05/27 10:31:00;;;;;;;0.95;0.95;;;;;;;;;;5053858;28;20033;-45
2022/05/27 10:33:39;;;;;;;1.30;0.80;;;;;;;;;;5053707;28;20032;-45
2022/05/27 10:36:40;;;;;;;0.90;0.90;;;;;;;;;;5053615;28;20043;-47
2022/05/27 10:39:12;;;;;;;1.25;1.00;;;;;;;;;;5053525;28;20029;-43
2022/05/27 10:42:04;;;;;;;2.00;1.00;;;;;;;;;;5053486;28;20025;-43
2022/05/27 10:45:01;;;;;;;7.28;1.50;;;;;;;;;;5053426;28;20430;-42
2022/05/27 10:47:51;;;;;;;1.42;1.00;;;;;;;;;;5053301;28;20033;-45
2022/05/27 10:50:29;;;;;;;1.48;1.10;;;;;;;;;;5053143;28;20027;-47
2022/05/27 10:52:57;;;;;;;1.92;1.10;;;;;;;;;;5053378;28;20040;-41
2022/05/27 10:55:49;;;;;;;1.60;1.00;;;;;;;;;;5052891;28;20433;-41
2022/05/27 11:02:13;;;;;;;4.00;1.30;;;;;;;;;;5052904;28;20065;-45
2022/05/27 11:05:05;;;;;;;2.38;1.10;;;;;;;;;;5052973;28;20112;-42
2022/05/27 11:07:38;;;;;;;1.60;1.10;;;;;;;;;;5052914;28;20044;-48
2022/05/27 11:10:10;;;;;;;3.03;2.13;;;;;;;;;;5052841;28;20055;-44
2022/05/27 11:16:10;;;;;;;3.25;1.60;;;;;;;;;;5053002;28;20431;-44
2022/05/27 11:19:00;;;;;;;2.60;1.60;;;;;;;;;;5052853;28;20052;-47
2022/05/27 11:21:37;;;;;;;3.78;2.10;;;;;;;;;;5052527;28;20049;-45
2022/05/27 11:24:29;;;;;;;2.13;1.85;;;;;;;;;;5052484;28;20028;-44
2022/05/27 11:27:21;;;;;;;4.25;2.47;;;;;;;;;;5052352;28;20095;-41
2022/05/27 11:30:20;;;;;;;0.85;0.85;;;;;;;;;;5030599;28;20556;-42
2022/05/27 11:33:24;;;;;;;1.48;1.08;;;;;;;;;;5052206;28;20032;-41
2022/05/27 11:36:21;;;;;;;1.10;1.00;;;;;;;;;;5016552;28;20041;-41
2022/05/27 11:39:09;;;;;;;2.55;1.20;;;;;;;;;;5052464;28;20067;-47
2022/05/27 11:41:50;;;;;;;1.70;0.80;;;;;;;;;;5052406;28;20508;-40
2022/05/27 11:44:36;;;;;;;1.35;1.10;;;;;;;;;;5052518;28;20035;-46
2022/05/27 11:47:25;;;;;;;1.38;1.20;;;;;;;;;;5052279;28;20090;-43
2022/05/27 11:50:09;;;;;;;9.80;1.48;;;;;;;;;;5052183;28;20017;-47
2022/05/27 11:53:16;;;;;;;4.53;1.02;;;;;;;;;;5051976;28;20167;-42
2022/05/27 11:56:09;;;;;;;4.20;1.50;;;;;;;;;;5048212;28;20396;-42
2022/05/27 11:58:53;;;;;;;2.25;1.20;;;;;;;;;;5052441;28;20431;-44
2022/05/27 12:01:36;;;;;;;5.03;1.30;;;;;;;;;;5051985;28;20381;-42
2022/05/27 12:04:16;;;;;;;3.00;1.30;;;;;;;;;;5052050;28;20502;-45
2022/05/27 12:06:53;;;;;;;1.60;1.30;;;;;;;;;;5052032;28;20048;-44
2022/05/27 12:09:41;;;;;;;1.88;1.20;;;;;;;;;;5054696;28;20068;-39
2022/05/27 12:12:26;;;;;;;3.15;1.52;;;;;;;;;;5056325;28;20031;-43
2022/05/27 12:15:09;;;;;;;1.20;1.13;;;;;;;;;;5055866;28;20599;-40
2022/05/27 12:17:42;;;;;;;1.73;1.50;;;;;;;;;;5055829;28;20420;-42
2022/05/27 12:20:09;;;;;;;1.73;1.50;;;;;;;;;;5056002;28;20032;-41
2022/05/27 12:22:35;;;;;;;2.75;1.30;;;;;;;;;;5056002;28;20025;-45
2022/05/27 12:25:15;;;;;;;3.88;1.33;;;;;;;;;;5055655;28;20483;-40
2022/05/27 12:27:41;;;;;;;6.63;2.70;;;;;;;;;;5055392;28;20080;-41
2022/05/27 12:30:14;;;;;;;1.67;1.33;;;;;;;;;;5055493;28;20040;-39
2022/05/27 12:32:43;;;;;;;4.13;1.25;;;;;;;;;;5055680;28;20048;-44
2022/05/27 12:35:27;;;;;;;5.03;3.15;;;;;;;;;;5055506;28;20025;-41
2022/05/27 12:38:12;;;;;;;2.88;1.60;;;;;;;;;;5055555;28;20032;-43
2022/05/27 12:41:09;;;;;;;2.55;1.40;;;;;;;;;;5055716;28;20021;-40
2022/05/27 12:43:54;;;;;;;2.40;1.50;;;;;;;;;;5055342;28;20025;-45
2022/05/27 12:46:39;;;;;;;7.38;1.20;;;;;;;;;;5055226;28;20071;-40
2022/05/27 12:49:41;;;;;;;1.73;1.40;;;;;;;;;;5055273;28;20044;-43
2022/05/27 12:52:28;;;;;;;3.35;1.60;;;;;;;;;;5023286;28;20037;-45
2022/05/27 12:54:54;;;;;;;3.03;1.40;;;;;;;;;;5055036;28;20049;-40
2022/05/27 13:03:35;;;;;;;1.88;1.33;;;;;;;;;;5054946;28;20518;-40
2022/05/27 13:06:07;;;;;;;4.75;1.70;;;;;;;;;;5054788;28;20618;-42
2022/05/27 13:08:42;;;;;;;2.75;2.42;;;;;;;;;;5054892;28;20029;-39
2022/05/27 13:11:39;;;;;;;4.28;1.70;;;;;;;;;;5054697;28;20028;-40
2022/05/27 13:14:04;;;;;;;2.17;1.30;;;;;;;;;;5054833;28;20029;-40
2022/05/27 13:16:33;;;;;;;3.97;1.45;;;;;;;;;;5055035;28;20032;-44
2022/05/27 13:19:05;;;;;;;3.88;1.85;;;;;;;;;;5054403;28;20025;-40
2022/05/27 13:21:37;;;;;;;1.77;1.60;;;;;;;;;;5054896;28;20024;-45
2022/05/27 13:24:07;;;;;;;2.85;1.73;;;;;;;;;;5054939;28;20029;-42
2022/05/27 13:26:49;;;;;;;3.42;1.70;;;;;;;;;;5036291;28;20076;-38
2022/05/27 13:29:24;;;;;;;5.90;1.73;;;;;;;;;;5054582;28;20056;-42
2022/05/27 13:32:02;;;;;;;11.30;1.55;;;;;;;;;;5054343;28;20103;-41
2022/05/27 13:34:45;;;;;;;2.03;1.65;;;;;;;;;;5054390;28;20028;-43
2022/05/27 13:37:25;;;;;;;6.50;1.77;;;;;;;;;;5054194;28;20064;-40
2022/05/27 13:39:56;;;;;;;3.85;1.80;;;;;;;;;;5054305;28;20025;-44
2022/05/27 13:42:34;;;;;;;2.97;1.63;;;;;;;;;;5054085;28;20036;-45
2022/05/27 13:45:27;;;;;;;3.55;1.92;;;;;;;;;;5054423;28;20124;-41
2022/05/27 13:48:16;;;;;;;3.17;1.52;;;;;;;;;;5051876;28;20037;-40
2022/05/27 13:50:45;;;;;;;3.03;1.50;;;;;;;;;;5053557;28;20527;-40
2022/05/27 13:53:26;;;;;;;2.80;1.50;;;;;;;;;;5053936;28;20032;-39
2022/05/27 13:56:23;;;;;;;1.88;1.77;;;;;;;;;;5054073;28;20553;-44
2022/05/27 13:59:19;;;;;;;3.80;1.58;;;;;;;;;;5028904;28;20057;-45
2022/05/27 14:01:56;;;;;;;1.70;1.60;;;;;;;;;;5052311;28;20029;-41
2022/05/27 14:04:37;;;;;;;2.60;2.00;;;;;;;;;;5052270;28;20034;-41
2022/05/27 14:07:02;;;;;;;3.50;2.03;;;;;;;;;;5052162;28;20163;-43
2022/05/27 14:09:33;;;;;;;3.22;1.98;;;;;;;;;;5052405;28;20116;-44
2022/05/27 14:12:07;;;;;;;2.28;1.60;;;;;;;;;;5052437;28;20435;-40
2022/05/27 14:14:46;;;;;;;2.35;2.10;;;;;;;;;;5052128;28;20036;-42
2022/05/27 14:17:17;;;;;;;2.00;1.67;;;;;;;;;;5052230;28;20025;-42
2022/05/27 14:19:44;;;;;;;5.72;2.47;;;;;;;;;;5052227;28;20369;-42
2022/05/27 14:22:41;;;;;;;3.40;1.90;;;;;;;;;;5051959;28;20040;-43
2022/05/27 14:25:30;;;;;;;2.33;1.90;;;;;;;;;;5051882;28;20032;-44
2022/05/27 14:27:59;;;;;;;2.23;1.70;;;;;;;;;;5051668;28;20052;-42
2022/05/27 14:30:32;;;;;;;4.67;1.77;;;;;;;;;;5051551;28;20282;-43
2022/05/27 14:32:57;;;;;;;2.35;1.77;;;;;;;;;;5052051;28;20332;-42
2022/05/27 14:35:25;;;;;;;2.30;1.65;;;;;;;;;;5051671;28;20464;-40
2022/05/27 14:38:15;;;;;;;3.38;2.25;;;;;;;;;;5052011;28;20039;-41
2022/05/27 14:40:47;;;;;;;5.72;3.40;;;;;;;;;;5051892;28;20032;-40
2022/05/27 14:43:29;;;;;;;2.70;1.90;;;;;;;;;;5051678;28;20032;-38
2022/05/27 14:45:57;;;;;;;6.85;2.13;;;;;;;;;;5051443;28;20029;-42
2022/05/27 14:48:35;;;;;;;4.82;2.10;;;;;;;;;;5051595;28;20029;-40
2022/05/27 14:51:32;;;;;;;5.22;1.90;;;;;;;;;;5051395;28;20025;-40
2022/05/27 14:54:28;;;;;;;3.85;2.35;;;;;;;;;;5051783;28;20404;-40
2022/05/27 14:57:15;;;;;;;2.33;2.08;;;;;;;;;;5051453;28;20127;-44
2022/05/27 14:59:46;;;;;;;2.67;2.13;;;;;;;;;;5051592;28;20082;-41
2022/05/27 15:02:20;;;;;;;2.67;1.73;;;;;;;;;;5051063;28;20465;-40
2022/05/27 15:05:03;;;;;;;6.57;2.00;;;;;;;;;;5051634;28;20029;-45
2022/05/27 15:08:08;;;;;;;2.00;1.80;;;;;;;;;;5050991;28;20499;-39
2022/05/27 15:10:38;;;;;;;2.22;2.03;;;;;;;;;;5036939;28;20443;-43
2022/05/27 15:13:48;;;;;;;2.22;2.03;;;;;;;;;;5050968;28;20415;-39
2022/05/27 15:16:23;;;;;;;2.10;1.77;;;;;;;;;;4989104;28;20038;-42
2022/05/27 15:18:55;;;;;;;3.47;2.03;;;;;;;;;;4989164;28;20166;-40
2022/05/27 15:21:34;;;;;;;2.72;1.90;;;;;;;;;;5027127;28;20110;-42
2022/05/27 15:24:18;;;;;;;3.65;1.88;;;;;;;;;;5050913;28;20041;-42
2022/05/27 15:35:31;;;;;;;5.13;1.95;;;;;;;;;;5050810;28;20081;-39
2022/05/27 15:37:57;;;;;;;3.13;2.28;;;;;;;;;;5050811;28;20051;-43
2022/05/27 15:40:23;;;;;;;3.17;1.85;;;;;;;;;;5051113;28;20033;-40
2022/05/27 15:42:50;;;;;;;4.18;2.05;;;;;;;;;;5050040;28;20167;-40
2022/05/27 15:45:19;;;;;;;3.30;2.08;;;;;;;;;;5050802;28;20092;-42
2022/05/27 15:47:45;;;;;;;4.95;1.95;;;;;;;;;;5050788;28;20131;-42
2022/05/27 15:50:12;;;;;;;2.58;1.80;;;;;;;;;;5050899;28;20029;-39
2022/05/27 15:52:37;;;;;;;3.53;1.70;;;;;;;;;;5050743;28;20021;-43
2022/05/27 15:55:04;;;;;;;4.22;1.80;;;;;;;;;;5050482;28;20704;-41
2022/05/27 15:57:30;;;;;;;4.43;1.90;;;;;;;;;;5050470;28;20530;-40
2022/05/27 15:59:55;;;;;;;3.85;1.98;;;;;;;;;;5050799;28;20033;-42
2022/05/27 16:02:22;;;;;;;2.17;1.98;;;;;;;;;;5050352;28;20385;-41
2022/05/27 16:04:48;;;;;;;2.33;1.63;;;;;;;;;;5050450;28;20488;-43